Goreville, Illinois
Current Conditions -  °F | °C
As of 1:53 PM on Monday 26 Jan 2015 (Local Time) from KMWA Reporting Station
Overcast Overcast  
Wind Chill: 25°   Ceiling: 2300
Heat Index: 34°   Visibility: 10mi
Dew Point: 27°   Wind: 12mph
Humidity: 75%   Direction: 300°WNW
Pressure: 29.99"   Gusts: NA
Location:  37.55°N, 88.97°W
Report Text: KMWA 261953Z 30010KT 10SM OVC023 01/M03 A2999
Loading
Personal Weather Stations






























Interactive Weather Map New forecast layout! Learn more

10-Day Weather Forecast

Advertisements
Track Severe Weather on mobile